Time;durP1;ratioP1;P1;durP2;ratioP2;P2;SDS_P1;SDS_P2;PMS_P1;PMS_P2;Temp;Humidity;BMP_temperature;BMP_pressure;BME280_temperature;BME280_humidity;BME280_pressure;Samples;Min_cycle;Max_cycle;Signal;HPM_P1;HPM_P2
2023/12/29 00:04:42;;;;;;;26.80;16.10;;;;;;;6.10;82.16;98758.08;226431;1274;22532;-74
2023/12/29 00:09:44;;;;;;;22.20;14.30;;;;;;;6.14;82.30;98748.05;226543;1272;22537;-75
2023/12/29 00:14:46;;;;;;;21.50;13.70;;;;;;;6.18;82.18;98745.81;226494;1273;23081;-74
2023/12/29 00:19:48;;;;;;;19.90;13.30;;;;;;;6.24;82.17;98735.27;226449;1272;24483;-74
2023/12/29 00:24:51;;;;;;;20.60;12.90;;;;;;;6.29;82.17;98720.67;226458;1272;22542;-74
2023/12/29 00:29:53;;;;;;;16.60;11.50;;;;;;;6.34;82.11;98721.98;226562;1272;22798;-75
2023/12/29 00:34:55;;;;;;;16.40;12.00;;;;;;;6.37;81.78;98730.21;226461;1274;22537;-75
2023/12/29 00:39:57;;;;;;;17.10;11.80;;;;;;;6.40;81.80;98735.80;226511;1273;24263;-75
2023/12/29 00:44:59;;;;;;;16.90;11.30;;;;;;;6.42;81.46;98724.23;226488;1273;23012;-74
2023/12/29 00:50:02;;;;;;;14.70;10.10;;;;;;;6.44;81.94;98722.79;226450;1272;22570;-75
2023/12/29 00:55:05;;;;;;;16.00;10.80;;;;;;;6.45;81.50;98733.33;226417;1271;22543;-75
2023/12/29 01:00:10;;;;;;;13.50;9.80;;;;;;;6.47;81.67;98728.98;226607;1269;22530;-75
2023/12/29 01:05:19;;;;;;;13.60;10.10;;;;;;;6.47;81.63;98724.60;227120;1272;22971;-74
2023/12/29 01:10:21;;;;;;;14.10;8.90;;;;;;;6.42;81.45;98710.95;226556;1272;26968;-74
2023/12/29 01:15:23;;;;;;;13.00;9.00;;;;;;;6.33;81.95;98724.33;226485;1274;22532;-75
2023/12/29 01:20:26;;;;;;;11.10;8.60;;;;;;;6.25;82.08;98724.15;226311;1274;22537;-74
2023/12/29 01:25:29;;;;;;;12.50;8.90;;;;;;;6.16;82.10;98722.13;226412;1272;22549;-75
2023/12/29 01:30:31;;;;;;;11.50;8.70;;;;;;;6.06;82.01;98722.64;226444;1266;22684;-75
2023/12/29 01:35:33;;;;;;;12.50;8.10;;;;;;;5.96;82.17;98715.30;226485;1272;22540;-75
2023/12/29 01:40:47;;;;;;;11.90;9.10;;;;;;;5.85;82.09;98706.46;226444;1272;22554;-75
2023/12/29 01:45:49;;;;;;;12.60;8.20;;;;;;;5.72;82.36;98697.12;226528;1272;22533;-75
2023/12/29 01:50:59;;;;;;;11.40;8.80;;;;;;;5.64;82.88;98687.95;226551;1272;24217;-75
2023/12/29 01:56:01;;;;;;;13.80;9.00;;;;;;;5.61;82.71;98690.31;226581;1272;22559;-75
2023/12/29 02:01:04;;;;;;;13.00;9.00;;;;;;;5.58;82.77;98684.79;226411;1274;22549;-76
2023/12/29 02:06:09;;;;;;;13.30;9.00;;;;;;;5.55;82.67;98675.67;226488;1272;22581;-75
2023/12/29 02:11:13;;;;;;;11.50;8.20;;;;;;;5.49;82.62;98670.86;226412;1273;25252;-76
2023/12/29 02:16:21;;;;;;;12.20;8.50;;;;;;;5.49;82.74;98674.04;226377;1269;22541;-75
2023/12/29 02:21:25;;;;;;;11.90;9.00;;;;;;;5.50;82.44;98672.01;226587;1272;22604;-75
2023/12/29 02:26:31;;;;;;;17.00;9.90;;;;;;;5.53;82.22;98675.00;226402;1272;22586;-75
2023/12/29 02:31:38;;;;;;;13.70;8.40;;;;;;;5.55;82.45;98672.23;226377;1272;22555;-75
2023/12/29 02:36:42;;;;;;;11.00;7.90;;;;;;;5.55;82.34;98666.59;226484;1274;22545;-75
2023/12/29 02:41:45;;;;;;;11.90;7.70;;;;;;;5.54;82.09;98652.05;226424;1270;22544;-75
2023/12/29 02:46:47;;;;;;;11.80;8.70;;;;;;;5.51;82.00;98643.62;226491;1273;22965;-75
2023/12/29 02:51:50;;;;;;;11.50;8.10;;;;;;;5.48;82.01;98635.56;226458;1274;22550;-75
2023/12/29 02:56:52;;;;;;;10.30;7.80;;;;;;;5.46;81.37;98635.36;226480;1272;22686;-75
2023/12/29 03:01:54;;;;;;;11.00;8.10;;;;;;;5.45;81.49;98625.76;226373;1271;24250;-75
2023/12/29 03:06:56;;;;;;;9.20;6.80;;;;;;;5.42;81.28;98619.23;226401;1272;26264;-75
2023/12/29 03:11:58;;;;;;;9.80;6.80;;;;;;;5.39;81.44;98615.88;226459;1273;23717;-75
2023/12/29 03:17:00;;;;;;;9.40;6.80;;;;;;;5.36;81.24;98618.28;226422;1273;22545;-75
2023/12/29 03:22:02;;;;;;;9.90;7.10;;;;;;;5.29;81.30;98618.28;226370;1269;22548;-76
2023/12/29 03:27:05;;;;;;;9.10;6.80;;;;;;;5.21;81.05;98617.02;226417;1272;22533;-75
2023/12/29 03:32:07;;;;;;;9.20;7.00;;;;;;;5.15;81.22;98614.59;226438;1272;25252;-75
2023/12/29 03:37:09;;;;;;;10.60;7.20;;;;;;;5.10;81.10;98608.73;226535;1263;22543;-75
2023/12/29 03:42:11;;;;;;;12.30;7.30;;;;;;;5.03;81.04;98605.95;226372;1274;22544;-75
2023/12/29 03:47:13;;;;;;;9.00;7.10;;;;;;;4.96;80.94;98606.88;226423;1274;25468;-75
2023/12/29 03:52:15;;;;;;;11.80;7.50;;;;;;;4.88;81.17;98604.23;226501;1259;24257;-76
2023/12/29 03:57:17;;;;;;;11.20;7.80;;;;;;;4.79;81.15;98598.99;226489;1272;24198;-75
2023/12/29 04:02:19;;;;;;;9.50;7.30;;;;;;;4.72;80.96;98601.82;226502;1269;22545;-75
2023/12/29 04:07:21;;;;;;;11.60;7.60;;;;;;;4.69;81.22;98601.15;226539;1274;26048;-75
2023/12/29 04:12:23;;;;;;;11.30;7.80;;;;;;;4.70;81.29;98598.11;226446;1274;22548;-75
2023/12/29 04:17:26;;;;;;;11.40;8.20;;;;;;;4.69;81.09;98599.90;226401;1273;22634;-75
2023/12/29 04:22:28;;;;;;;11.20;7.80;;;;;;;4.70;81.26;98587.38;226428;1272;22683;-75
2023/12/29 04:27:30;;;;;;;10.10;7.70;;;;;;;4.73;81.30;98588.38;226579;1263;22511;-75
2023/12/29 04:32:32;;;;;;;9.80;7.60;;;;;;;4.73;81.33;98589.10;226460;1272;25353;-74
2023/12/29 04:37:34;;;;;;;12.30;8.20;;;;;;;4.70;81.35;98600.30;226530;1272;22544;-73
2023/12/29 04:42:36;;;;;;;11.50;8.10;;;;;;;4.69;81.50;98595.78;226588;1272;24215;-74
2023/12/29 04:47:38;;;;;;;11.10;8.00;;;;;;;4.70;81.55;98590.52;226392;1272;22660;-74
2023/12/29 04:52:40;;;;;;;12.10;8.80;;;;;;;4.74;81.40;98580.05;226446;1274;22543;-74
2023/12/29 04:57:42;;;;;;;13.50;9.10;;;;;;;4.75;81.15;98568.60;226437;1274;22555;-74
2023/12/29 05:02:44;;;;;;;13.10;8.80;;;;;;;4.72;81.44;98562.60;226523;1274;24250;-75
2023/12/29 05:07:46;;;;;;;11.30;8.40;;;;;;;4.71;81.66;98565.84;226500;1273;24378;-75
2023/12/29 05:12:48;;;;;;;11.60;8.10;;;;;;;4.71;81.17;98560.86;226326;1273;22749;-75
2023/12/29 05:17:51;;;;;;;10.70;7.50;;;;;;;4.73;81.66;98556.23;226467;1272;24238;-75
2023/12/29 05:22:53;;;;;;;9.50;7.30;;;;;;;4.82;81.76;98562.05;226369;1272;22896;-75
2023/12/29 05:27:55;;;;;;;10.40;6.80;;;;;;;5.00;82.09;98575.08;226406;1272;22545;-74
2023/12/29 05:32:57;;;;;;;12.10;8.20;;;;;;;5.22;82.06;98576.67;226518;1274;22567;-74
2023/12/29 05:37:59;;;;;;;11.30;7.50;;;;;;;5.45;81.88;98568.94;226431;1272;24401;-74
2023/12/29 05:43:02;;;;;;;8.70;6.00;;;;;;;5.63;81.78;98569.88;226360;1272;22542;-75
2023/12/29 05:48:05;;;;;;;8.00;5.40;;;;;;;5.81;81.45;98566.92;226433;1274;22561;-74
2023/12/29 05:53:07;;;;;;;8.20;5.80;;;;;;;6.00;81.40;98571.84;226215;1273;22540;-74
2023/12/29 05:58:09;;;;;;;8.30;5.60;;;;;;;6.18;81.01;98554.95;226446;1274;22533;-74
2023/12/29 06:03:11;;;;;;;7.10;4.80;;;;;;;6.24;80.51;98550.73;226527;1273;22666;-74
2023/12/29 06:08:13;;;;;;;7.00;4.90;;;;;;;6.27;80.60;98548.27;226370;1274;27099;-75
2023/12/29 06:13:15;;;;;;;5.80;4.50;;;;;;;6.28;80.66;98539.63;226358;1273;22594;-76
2023/12/29 06:18:17;;;;;;;6.30;4.80;;;;;;;6.28;80.26;98550.27;226565;1274;22563;-76
2023/12/29 06:23:20;;;;;;;7.50;4.90;;;;;;;6.27;80.46;98550.56;226545;1272;25293;-74
2023/12/29 06:28:22;;;;;;;7.00;4.40;;;;;;;6.23;80.25;98548.92;226360;1273;24940;-74
2023/12/29 06:33:24;;;;;;;8.60;5.30;;;;;;;6.20;80.52;98551.19;226411;1274;22551;-75
2023/12/29 06:38:26;;;;;;;7.50;5.40;;;;;;;6.14;80.31;98533.77;226443;1273;22550;-74
2023/12/29 06:43:28;;;;;;;8.10;5.30;;;;;;;6.09;80.64;98535.97;226461;1274;22550;-75
2023/12/29 06:48:30;;;;;;;8.10;5.10;;;;;;;6.09;80.75;98549.90;226435;1275;22671;-74
2023/12/29 06:53:33;;;;;;;8.70;6.10;;;;;;;6.09;80.55;98559.02;226456;1273;22593;-75
2023/12/29 06:58:35;;;;;;;7.50;5.70;;;;;;;6.07;80.71;98561.69;226471;1274;22706;-74
2023/12/29 07:03:37;;;;;;;8.90;5.40;;;;;;;6.09;81.17;98557.96;226465;1274;22641;-74
2023/12/29 07:08:39;;;;;;;9.00;6.40;;;;;;;6.14;80.83;98545.21;226516;1273;22537;-74
2023/12/29 07:13:41;;;;;;;8.70;5.60;;;;;;;6.20;81.04;98548.77;226433;1267;22574;-75
2023/12/29 07:18:43;;;;;;;8.70;5.90;;;;;;;6.26;80.88;98553.66;226426;1274;22558;-75
2023/12/29 07:23:46;;;;;;;9.50;6.30;;;;;;;6.32;80.54;98564.25;226387;1273;22530;-75
2023/12/29 07:28:48;;;;;;;8.30;6.20;;;;;;;6.38;80.48;98571.06;226547;1267;24420;-75
2023/12/29 07:33:51;;;;;;;9.20;6.70;;;;;;;6.44;79.88;98561.11;226478;1274;22540;-74
2023/12/29 07:38:53;;;;;;;8.90;6.70;;;;;;;6.52;79.67;98566.05;226494;1274;22702;-74
2023/12/29 07:43:55;;;;;;;9.40;7.40;;;;;;;6.57;79.27;98564.03;226494;1272;22566;-74
2023/12/29 07:48:57;;;;;;;11.50;6.90;;;;;;;6.62;79.54;98575.77;226573;1260;22922;-74
2023/12/29 07:54:00;;;;;;;11.00;7.20;;;;;;;6.69;79.50;98576.27;226438;1274;22564;-75
2023/12/29 07:59:02;;;;;;;8.90;6.70;;;;;;;6.76;79.54;98573.41;226572;1273;22602;-74
2023/12/29 08:04:04;;;;;;;10.80;7.40;;;;;;;6.87;79.05;98576.16;226501;1273;22661;-75
2023/12/29 08:09:07;;;;;;;12.60;7.40;;;;;;;6.99;79.42;98573.91;226535;1273;22569;-74
2023/12/29 08:14:09;;;;;;;11.50;7.30;;;;;;;7.11;79.15;98577.84;226488;1270;22564;-75
2023/12/29 08:19:11;;;;;;;10.70;6.80;;;;;;;7.24;79.14;98577.65;226564;1267;22536;-76
2023/12/29 08:24:14;;;;;;;9.30;6.80;;;;;;;7.37;78.85;98574.89;226541;1274;22562;-75
2023/12/29 08:29:16;;;;;;;9.80;7.10;;;;;;;7.52;78.93;98580.46;226586;1273;22529;-76
2023/12/29 08:34:18;;;;;;;9.10;6.70;;;;;;;7.64;78.49;98574.70;226540;1270;22554;-75
2023/12/29 08:39:22;;;;;;;9.60;6.90;;;;;;;7.72;78.03;98575.25;226555;1273;22555;-76
2023/12/29 08:44:25;;;;;;;9.50;6.40;;;;;;;7.82;78.14;98578.95;226375;1267;23080;-76
2023/12/29 08:49:27;;;;;;;9.30;6.20;;;;;;;7.92;77.80;98569.20;226431;1251;23414;-76
2023/12/29 08:54:29;;;;;;;8.50;5.50;;;;;;;8.03;77.57;98568.63;226330;1263;22558;-76
2023/12/29 08:59:31;;;;;;;9.30;6.80;;;;;;;8.12;77.11;98568.36;226357;1267;22660;-75
2023/12/29 09:04:33;;;;;;;9.20;6.40;;;;;;;8.21;76.76;98568.99;226249;1251;25328;-74
2023/12/29 09:09:35;;;;;;;7.20;5.40;;;;;;;8.31;76.48;98569.42;226371;1270;22536;-75
2023/12/29 09:14:37;;;;;;;8.30;5.80;;;;;;;8.41;76.29;98566.23;226387;1267;22799;-75
2023/12/29 09:19:39;;;;;;;9.70;5.20;;;;;;;8.55;76.32;98572.33;226339;1267;22776;-74
2023/12/29 09:24:42;;;;;;;8.40;5.50;;;;;;;8.68;76.18;98570.80;226374;1266;22554;-74
2023/12/29 09:29:44;;;;;;;8.70;5.40;;;;;;;8.76;75.93;98562.83;226343;1262;24617;-75
2023/12/29 09:34:46;;;;;;;7.20;5.70;;;;;;;8.80;75.85;98552.66;226384;1267;22784;-76
2023/12/29 09:39:48;;;;;;;7.80;6.00;;;;;;;8.80;75.50;98535.27;226348;1273;22570;-76
2023/12/29 09:44:51;;;;;;;14.80;9.40;;;;;;;8.80;75.75;98536.04;226342;1272;22548;-74
2023/12/29 09:49:53;;;;;;;10.50;6.30;;;;;;;8.79;75.76;98531.16;226411;1251;22539;-75
2023/12/29 09:54:57;;;;;;;8.80;6.80;;;;;;;8.81;75.59;98521.66;226450;1272;22890;-74
2023/12/29 10:00:00;;;;;;;8.80;5.60;;;;;;;8.85;75.68;98517.88;226416;1259;24278;-74
2023/12/29 10:05:11;;;;;;;7.80;5.80;;;;;;;8.92;75.65;98529.17;226263;1270;22548;-75
2023/12/29 10:10:17;;;;;;;7.60;5.30;;;;;;;8.98;75.34;98528.09;226369;1272;22531;-75
2023/12/29 10:15:32;;;;;;;6.70;5.00;;;;;;;9.03;75.25;98522.33;226266;1259;25335;-74
2023/12/29 10:20:53;;;;;;;8.60;5.70;;;;;;;9.07;75.22;98508.61;226388;1259;25923;-74
2023/12/29 10:25:57;;;;;;;10.10;5.60;;;;;;;9.08;75.29;98500.44;226404;1274;22605;-75
2023/12/29 10:30:59;;;;;;;8.50;6.20;;;;;;;9.07;74.96;98500.81;226467;1273;22590;-75
2023/12/29 10:36:05;;;;;;;11.20;6.50;;;;;;;9.08;75.02;98505.05;226521;1273;22591;-74
2023/12/29 10:41:14;;;;;;;8.30;5.60;;;;;;;9.12;75.37;98498.26;226542;1260;22590;-76
2023/12/29 10:46:17;;;;;;;8.50;6.10;;;;;;;9.19;75.38;98505.97;226504;1259;22540;-75
2023/12/29 10:51:28;;;;;;;6.70;4.90;;;;;;;9.31;75.29;98510.72;226423;1270;22547;-75
2023/12/29 10:56:31;;;;;;;7.70;5.30;;;;;;;9.43;75.25;98504.64;226571;1272;22550;-75
2023/12/29 11:01:35;;;;;;;7.30;4.50;;;;;;;9.50;74.47;98489.49;226544;1272;22544;-74
2023/12/29 11:06:44;;;;;;;8.50;4.90;;;;;;;9.56;74.41;98495.23;226514;1273;22613;-75
2023/12/29 11:11:47;;;;;;;6.20;4.30;;;;;;;9.66;74.26;98496.41;226544;1271;22544;-75
2023/12/29 11:16:52;;;;;;;5.10;3.50;;;;;;;9.77;74.12;98490.63;226562;1273;22648;-75
2023/12/29 11:21:57;;;;;;;4.80;3.10;;;;;;;9.91;74.14;98494.12;226575;1273;23073;-75
2023/12/29 11:27:00;;;;;;;2.80;2.40;;;;;;;10.05;73.76;98484.61;226523;1272;115809;-75
2023/12/29 11:32:06;;;;;;;4.80;2.60;;;;;;;10.14;73.33;98482.77;226429;1266;26276;-75
2023/12/29 11:37:20;;;;;;;3.70;2.70;;;;;;;10.15;72.63;98485.12;226579;1273;22541;-75
2023/12/29 11:42:31;;;;;;;4.20;2.80;;;;;;;10.11;72.23;98486.42;226390;1273;23328;-74
2023/12/29 11:47:37;;;;;;;3.80;2.70;;;;;;;10.06;72.35;98479.22;226491;1273;22551;-75
2023/12/29 11:52:40;;;;;;;3.20;2.70;;;;;;;10.01;72.38;98483.32;226444;1272;22583;-74
2023/12/29 11:57:42;;;;;;;6.40;3.50;;;;;;;9.97;72.30;98480.73;226567;1266;22679;-75
2023/12/29 12:02:45;;;;;;;3.10;2.20;;;;;;;9.93;72.76;98480.14;226594;1268;24369;-75
2023/12/29 12:07:48;;;;;;;3.50;2.40;;;;;;;9.90;72.44;98480.36;226602;1272;22564;-74
2023/12/29 12:12:51;;;;;;;2.80;2.50;;;;;;;9.85;72.25;98468.13;226670;1271;22716;-74
2023/12/29 12:17:55;;;;;;;3.60;2.40;;;;;;;9.81;72.55;98472.47;226575;1270;24273;-77
2023/12/29 12:23:05;;;;;;;2.90;2.00;;;;;;;9.79;72.40;98480.47;226657;1273;22539;-74
2023/12/29 12:28:07;;;;;;;3.10;2.70;;;;;;;9.76;72.60;98477.00;226673;1271;22502;-74
2023/12/29 12:33:13;;;;;;;3.30;2.50;;;;;;;9.71;72.15;98475.64;226566;1269;22670;-74
2023/12/29 12:38:24;;;;;;;4.60;2.70;;;;;;;9.67;72.64;98473.04;226633;1272;22552;-75
2023/12/29 12:43:27;;;;;;;2.50;2.00;;;;;;;9.62;71.91;98465.99;226595;1273;22540;-76
2023/12/29 12:48:45;;;;;;;4.60;3.20;;;;;;;9.56;72.17;98471.77;226541;1269;22547;-75
2023/12/29 12:53:49;;;;;;;4.30;2.90;;;;;;;9.50;72.42;98471.20;226646;1269;22567;-75
2023/12/29 12:58:51;;;;;;;3.10;2.20;;;;;;;9.45;72.19;98463.05;226620;1270;22547;-74
2023/12/29 13:03:53;;;;;;;3.70;2.70;;;;;;;9.41;72.33;98463.92;226643;1267;22540;-74
2023/12/29 13:09:08;;;;;;;3.40;2.80;;;;;;;9.38;72.57;98466.41;226528;1270;23030;-74
2023/12/29 13:14:23;;;;;;;3.60;2.80;;;;;;;9.36;72.56;98477.21;226416;1274;24327;-76
2023/12/29 13:19:27;;;;;;;3.60;2.70;;;;;;;9.33;72.49;98475.66;226638;1272;22548;-76
2023/12/29 13:24:29;;;;;;;3.50;2.90;;;;;;;9.29;72.55;98467.91;226442;1273;22500;-74
2023/12/29 13:29:34;;;;;;;3.70;2.70;;;;;;;9.25;72.63;98461.86;226541;1272;23464;-74
2023/12/29 13:35:04;;;;;;;3.70;3.00;;;;;;;9.22;72.43;98460.16;226559;1272;22532;-75
2023/12/29 13:40:13;;;;;;;4.60;3.00;;;;;;;9.16;72.85;98465.27;226605;1272;22904;-75
2023/12/29 13:45:18;;;;;;;5.10;3.60;;;;;;;9.13;72.66;98468.13;226614;1272;22582;-75
2023/12/29 13:50:20;;;;;;;7.00;4.00;;;;;;;9.07;72.77;98469.17;226587;1266;23307;-75
2023/12/29 13:55:24;;;;;;;5.50;3.40;;;;;;;9.01;73.12;98472.84;226543;1263;22558;-75
2023/12/29 14:00:28;;;;;;;5.70;3.50;;;;;;;8.96;73.34;98474.88;226696;1269;22626;-75
2023/12/29 14:05:47;;;;;;;5.70;3.70;;;;;;;8.91;73.19;98480.13;226505;1273;22565;-75
2023/12/29 14:10:49;;;;;;;6.10;3.90;;;;;;;8.85;73.28;98479.74;226404;1273;22560;-76
2023/12/29 14:15:51;;;;;;;6.80;3.70;;;;;;;8.81;73.28;98480.94;226620;1269;22540;-77
2023/12/29 14:20:54;;;;;;;5.00;3.80;;;;;;;8.76;73.55;98485.19;226530;1269;22556;-74
2023/12/29 14:26:03;;;;;;;4.60;3.60;;;;;;;8.69;73.45;98489.59;226425;1269;25396;-75
2023/12/29 14:31:05;;;;;;;4.80;3.70;;;;;;;8.59;73.60;98494.77;226508;1272;22519;-74
2023/12/29 14:36:07;;;;;;;9.00;5.60;;;;;;;8.49;73.90;98501.40;226612;1273;22540;-74
2023/12/29 14:41:09;;;;;;;8.80;5.60;;;;;;;8.37;74.18;98502.15;226602;1272;22569;-74
2023/12/29 14:46:12;;;;;;;11.80;7.10;;;;;;;8.27;74.35;98500.73;226549;1272;22634;-75
2023/12/29 14:51:15;;;;;;;9.20;6.40;;;;;;;8.16;74.60;98501.25;226533;1266;22590;-75
2023/12/29 14:56:18;;;;;;;10.40;6.90;;;;;;;8.06;74.91;98504.20;226449;1256;22662;-74
2023/12/29 15:01:20;;;;;;;9.70;5.40;;;;;;;7.95;75.27;98509.36;226462;1272;22470;-74
2023/12/29 15:06:22;;;;;;;9.40;6.30;;;;;;;7.83;75.53;98510.10;226424;1269;22562;-74
2023/12/29 15:11:24;;;;;;;10.30;6.70;;;;;;;7.71;75.81;98506.21;226372;1259;23120;-74
2023/12/29 15:16:26;;;;;;;8.40;6.40;;;;;;;7.62;76.13;98500.95;226366;1272;22585;-74
2023/12/29 15:21:28;;;;;;;10.40;7.00;;;;;;;7.55;76.22;98494.81;226387;1269;22548;-74
2023/12/29 15:26:30;;;;;;;9.90;6.50;;;;;;;7.51;76.44;98498.02;226410;1272;22544;-74
2023/12/29 15:31:32;;;;;;;9.20;6.80;;;;;;;7.49;76.65;98500.14;226396;1269;22708;-75
2023/12/29 15:36:35;;;;;;;10.40;6.90;;;;;;;7.46;76.71;98502.58;226531;1269;22569;-74
2023/12/29 15:41:37;;;;;;;11.30;7.50;;;;;;;7.42;76.86;98496.05;226528;1272;24316;-74
2023/12/29 15:46:39;;;;;;;10.90;7.20;;;;;;;7.36;76.68;98496.38;226343;1269;24973;-74
2023/12/29 15:51:41;;;;;;;9.50;6.60;;;;;;;7.26;76.60;98484.73;226445;1269;22564;-74
2023/12/29 15:56:43;;;;;;;11.10;6.60;;;;;;;7.16;77.04;98479.52;226482;1273;22566;-75
2023/12/29 16:01:45;;;;;;;11.60;7.40;;;;;;;7.07;77.35;98482.18;226481;1273;22529;-75
2023/12/29 16:06:47;;;;;;;11.60;7.80;;;;;;;7.03;77.56;98488.01;226564;1272;22653;-74
2023/12/29 16:11:54;;;;;;;10.90;7.50;;;;;;;7.03;77.70;98479.98;226521;1273;23233;-74
2023/12/29 16:16:56;;;;;;;13.70;8.40;;;;;;;7.04;77.80;98477.79;226446;1269;22552;-75
2023/12/29 16:21:58;;;;;;;13.70;8.10;;;;;;;7.03;78.30;98468.37;226443;1273;22707;-75
2023/12/29 16:27:02;;;;;;;12.70;7.50;;;;;;;7.05;78.15;98459.63;226436;1269;25275;-75
2023/12/29 16:32:05;;;;;;;10.30;6.70;;;;;;;7.05;78.25;98463.23;226537;1272;22579;-75
2023/12/29 16:37:08;;;;;;;10.30;7.10;;;;;;;7.04;78.51;98465.11;226540;1272;22546;-75
2023/12/29 16:42:15;;;;;;;10.40;6.90;;;;;;;7.05;78.20;98467.90;226461;1270;22537;-75
2023/12/29 16:47:18;;;;;;;15.00;7.70;;;;;;;7.03;78.38;98464.40;226513;1272;22611;-76
2023/12/29 16:52:20;;;;;;;13.60;7.40;;;;;;;6.99;78.42;98463.75;226588;1274;22601;-73
2023/12/29 16:57:22;;;;;;;12.80;7.40;;;;;;;6.99;78.73;98460.15;226629;1272;23255;-74
2023/12/29 17:02:25;;;;;;;12.30;6.90;;;;;;;7.04;78.94;98459.44;226442;1269;22899;-73
2023/12/29 17:07:27;;;;;;;11.20;7.50;;;;;;;7.06;79.27;98455.62;226503;1272;22581;-74
2023/12/29 17:12:29;;;;;;;10.00;6.50;;;;;;;7.06;78.90;98453.38;226538;1272;22586;-74
2023/12/29 17:17:31;;;;;;;12.10;7.10;;;;;;;7.05;79.38;98456.44;226468;1266;22531;-73
2023/12/29 17:22:33;;;;;;;12.20;7.30;;;;;;;7.08;79.48;98457.55;226478;1272;22997;-74
2023/12/29 17:27:36;;;;;;;11.00;7.10;;;;;;;7.08;79.32;98451.29;226500;1273;24225;-74
2023/12/29 17:32:38;;;;;;;10.40;7.10;;;;;;;7.02;79.45;98460.98;226498;1263;22563;-74
2023/12/29 17:37:40;;;;;;;15.30;8.10;;;;;;;7.02;79.65;98458.52;226488;1270;22564;-75
2023/12/29 17:42:42;;;;;;;22.80;14.50;;;;;;;6.99;79.67;98455.02;226511;1272;22545;-75
2023/12/29 17:47:44;;;;;;;13.00;7.80;;;;;;;6.98;79.66;98444.16;226408;1273;22570;-74
2023/12/29 17:52:47;;;;;;;12.70;7.60;;;;;;;6.97;79.96;98455.85;226481;1270;23015;-74
2023/12/29 17:57:49;;;;;;;14.20;8.60;;;;;;;6.96;80.00;98465.57;226484;1273;22534;-74
2023/12/29 18:02:51;;;;;;;15.40;9.60;;;;;;;7.00;80.43;98475.73;226413;1272;22493;-75
2023/12/29 18:07:53;;;;;;;15.30;9.60;;;;;;;7.01;80.05;98480.59;226397;1273;24758;-75
2023/12/29 18:12:58;;;;;;;12.90;8.20;;;;;;;6.98;80.10;98481.84;226443;1269;22547;-75
2023/12/29 18:18:01;;;;;;;11.70;7.50;;;;;;;6.92;80.17;98480.85;226513;1271;22570;-74
2023/12/29 18:23:07;;;;;;;13.90;8.20;;;;;;;6.87;79.95;98484.40;226453;1269;25372;-74
2023/12/29 18:28:09;;;;;;;15.20;9.00;;;;;;;6.82;80.25;98485.75;226512;1255;22537;-74
2023/12/29 18:33:11;;;;;;;17.00;8.90;;;;;;;6.73;80.19;98487.36;226462;1269;23013;-76
2023/12/29 18:38:14;;;;;;;13.00;8.50;;;;;;;6.67;80.24;98497.14;226505;1269;23306;-74
2023/12/29 18:43:18;;;;;;;15.70;9.30;;;;;;;6.62;80.39;98498.23;226452;1273;22580;-74
2023/12/29 18:48:20;;;;;;;14.30;9.40;;;;;;;6.58;80.40;98494.90;226494;1273;22536;-75
2023/12/29 18:53:26;;;;;;;13.80;9.00;;;;;;;6.57;80.77;98497.59;226360;1272;23051;-74
2023/12/29 18:58:28;;;;;;;13.70;8.70;;;;;;;6.61;80.89;98490.85;226095;1273;22536;-74
2023/12/29 19:03:32;;;;;;;12.30;8.40;;;;;;;6.65;80.82;98484.81;226378;1270;22562;-74
2023/12/29 19:08:34;;;;;;;13.10;8.10;;;;;;;6.72;80.78;98488.67;226757;1273;22576;-75
2023/12/29 19:13:38;;;;;;;13.00;8.40;;;;;;;6.81;81.08;98487.23;226496;1273;23165;-75
2023/12/29 19:18:43;;;;;;;12.20;7.60;;;;;;;6.87;80.77;98488.35;226509;1272;22540;-75
2023/12/29 19:23:45;;;;;;;12.10;7.70;;;;;;;6.90;80.40;98491.23;226513;1273;22577;-74
2023/12/29 19:28:49;;;;;;;15.20;9.00;;;;;;;6.95;80.81;98487.96;226571;1270;22551;-74
2023/12/29 19:33:52;;;;;;;11.70;7.60;;;;;;;7.00;80.58;98482.63;226815;1273;22559;-75
2023/12/29 19:38:55;;;;;;;12.80;7.60;;;;;;;7.06;80.67;98485.40;226454;1272;24257;-75
2023/12/29 19:43:57;;;;;;;13.80;8.00;;;;;;;7.13;80.62;98481.84;226420;1272;22544;-75
2023/12/29 19:49:00;;;;;;;13.60;8.10;;;;;;;7.20;80.96;98485.90;226394;1272;22556;-75
2023/12/29 19:54:04;;;;;;;14.50;7.90;;;;;;;7.28;80.67;98493.83;226754;1274;22574;-75
2023/12/29 19:59:07;;;;;;;12.10;7.20;;;;;;;7.34;80.46;98495.38;226373;1273;22574;-75
2023/12/29 20:04:09;;;;;;;9.80;6.30;;;;;;;7.38;80.29;98489.87;226538;1270;22531;-75
2023/12/29 20:09:11;;;;;;;10.90;7.00;;;;;;;7.35;79.97;98481.54;226398;1272;22541;-75
2023/12/29 20:14:18;;;;;;;16.10;8.80;;;;;;;7.32;80.46;98473.14;226405;1273;25504;-75
2023/12/29 20:19:20;;;;;;;16.60;9.60;;;;;;;7.28;80.31;98470.67;226512;1272;22554;-75
2023/12/29 20:24:23;;;;;;;14.40;8.10;;;;;;;7.23;80.55;98463.13;226446;1273;24265;-75
2023/12/29 20:29:28;;;;;;;11.90;6.90;;;;;;;7.21;80.33;98464.13;226470;1272;24255;-75
2023/12/29 20:34:32;;;;;;;10.90;6.20;;;;;;;7.22;80.57;98459.27;226356;1273;25369;-74
2023/12/29 20:39:35;;;;;;;10.30;6.30;;;;;;;7.26;80.45;98452.18;226409;1272;25415;-75
2023/12/29 20:44:39;;;;;;;12.50;6.40;;;;;;;7.30;80.52;98457.06;226558;1269;22540;-75
2023/12/29 20:49:43;;;;;;;10.20;5.50;;;;;;;7.34;80.60;98459.60;226659;1270;22576;-75
2023/12/29 20:54:49;;;;;;;9.90;6.00;;;;;;;7.39;80.64;98464.63;226457;1273;22532;-74
2023/12/29 20:59:52;;;;;;;8.50;5.70;;;;;;;7.40;80.45;98463.81;226482;1272;22554;-74
2023/12/29 21:04:56;;;;;;;12.00;6.90;;;;;;;7.40;80.31;98465.38;226514;1272;22555;-76
2023/12/29 21:10:00;;;;;;;9.10;5.90;;;;;;;7.39;80.03;98460.98;226333;1273;23022;-75
2023/12/29 21:15:05;;;;;;;9.20;5.80;;;;;;;7.35;80.12;98463.40;226458;1269;24308;-75
2023/12/29 21:20:13;;;;;;;9.00;5.30;;;;;;;7.28;80.01;98465.35;226909;1270;22510;-75
2023/12/29 21:25:16;;;;;;;8.90;5.50;;;;;;;7.22;79.67;98463.11;226421;1273;22577;-75
2023/12/29 21:30:19;;;;;;;8.20;5.70;;;;;;;7.15;80.17;98467.08;226528;1272;23032;-75
2023/12/29 21:35:22;;;;;;;9.00;6.00;;;;;;;7.10;80.06;98458.36;226491;1274;22591;-75
2023/12/29 21:40:25;;;;;;;7.70;5.20;;;;;;;7.06;80.08;98459.63;226607;1274;22547;-75
2023/12/29 21:45:28;;;;;;;10.30;6.30;;;;;;;7.09;80.23;98455.52;226360;1273;22543;-75
2023/12/29 21:50:30;;;;;;;9.20;6.30;;;;;;;7.21;80.39;98449.05;226447;1274;22595;-75
2023/12/29 21:55:35;;;;;;;8.40;5.60;;;;;;;7.30;80.39;98447.55;226333;1273;22553;-75
2023/12/29 22:00:40;;;;;;;7.50;5.00;;;;;;;7.31;79.92;98439.81;226476;1273;22545;-75
2023/12/29 22:05:43;;;;;;;6.10;4.60;;;;;;;7.32;80.07;98434.65;226510;1273;22550;-77
2023/12/29 22:10:48;;;;;;;7.40;5.00;;;;;;;7.33;80.24;98414.21;226429;1273;22657;-75
2023/12/29 22:15:50;;;;;;;9.20;5.10;;;;;;;7.34;80.00;98413.35;226405;1273;22597;-76
2023/12/29 22:20:52;;;;;;;6.70;4.70;;;;;;;7.36;79.81;98415.45;226560;1272;22547;-74
2023/12/29 22:25:55;;;;;;;7.90;5.00;;;;;;;7.38;79.62;98422.69;226449;1273;22593;-75
2023/12/29 22:30:58;;;;;;;7.60;5.00;;;;;;;7.39;79.83;98425.58;226480;1273;22551;-75
2023/12/29 22:36:01;;;;;;;8.00;5.00;;;;;;;7.38;79.64;98434.48;226447;1269;22591;-75
2023/12/29 22:41:11;;;;;;;7.40;4.90;;;;;;;7.37;79.64;98433.54;226495;1272;23077;-74
2023/12/29 22:46:17;;;;;;;8.00;5.00;;;;;;;7.36;79.65;98426.31;226462;1274;22543;-74
2023/12/29 22:51:28;;;;;;;6.60;4.90;;;;;;;7.38;79.47;98415.55;226488;1269;22544;-74
2023/12/29 22:56:30;;;;;;;6.30;4.90;;;;;;;7.41;79.71;98415.24;226524;1272;22555;-74
2023/12/29 23:01:32;;;;;;;8.30;5.40;;;;;;;7.40;79.41;98412.63;226465;1272;22515;-75
2023/12/29 23:06:35;;;;;;;6.50;4.60;;;;;;;7.39;79.30;98413.19;226442;1272;25450;-75
2023/12/29 23:11:37;;;;;;;7.30;4.60;;;;;;;7.36;79.22;98410.02;226500;1272;22677;-74
2023/12/29 23:16:39;;;;;;;6.70;4.90;;;;;;;7.35;79.43;98405.20;226386;1272;22664;-76
2023/12/29 23:21:41;;;;;;;7.70;5.50;;;;;;;7.34;79.20;98396.36;226439;1272;23023;-74
2023/12/29 23:26:43;;;;;;;8.30;5.00;;;;;;;7.31;79.48;98388.64;226450;1269;142540;-75
2023/12/29 23:31:48;;;;;;;6.70;4.80;;;;;;;7.30;79.57;98387.79;226409;1272;23280;-74
2023/12/29 23:36:50;;;;;;;7.10;4.40;;;;;;;7.26;79.28;98370.66;226458;1274;22559;-74
2023/12/29 23:41:52;;;;;;;7.00;4.50;;;;;;;7.25;79.29;98366.56;226374;1251;22566;-75